createdAt,value
2023-03-03T00:01:18.638Z,10.15
2023-03-03T00:03:45.748Z,10.50
2023-03-03T00:06:14.611Z,9.55
2023-03-03T00:08:41.302Z,9.68
2023-03-03T00:11:08.168Z,9.48
2023-03-03T00:13:42.502Z,9.10
2023-03-03T00:16:30.662Z,10.00
2023-03-03T00:18:58.316Z,10.10
2023-03-03T00:21:30.470Z,9.93
2023-03-03T00:24:12.375Z,10.30
2023-03-03T00:26:41.844Z,9.18
2023-03-03T00:29:27.043Z,9.70
2023-03-03T00:31:54.116Z,9.15
2023-03-03T00:34:27.079Z,8.88
2023-03-03T00:36:56.290Z,9.10
2023-03-03T00:39:35.699Z,8.70
2023-03-03T00:42:04.336Z,9.02
2023-03-03T00:44:35.654Z,9.35
2023-03-03T00:47:13.972Z,8.80
2023-03-03T00:49:41.486Z,8.85
2023-03-03T00:52:16.124Z,10.35
2023-03-03T00:54:42.886Z,9.60
2023-03-03T00:57:10.227Z,9.90
2023-03-03T00:59:36.785Z,9.25
2023-03-03T01:02:03.381Z,9.85
2023-03-03T01:04:29.948Z,9.15
2023-03-03T01:06:56.557Z,9.48
2023-03-03T01:09:23.668Z,9.77
2023-03-03T01:11:51.673Z,9.23
2023-03-03T01:14:18.394Z,9.50
2023-03-03T01:16:45.028Z,9.20
2023-03-03T01:19:11.601Z,9.30
2023-03-03T01:21:38.821Z,9.77
2023-03-03T01:24:05.643Z,9.02
2023-03-03T01:26:32.227Z,9.23
2023-03-03T01:28:58.815Z,9.05
2023-03-03T01:31:25.521Z,9.65
2023-03-03T01:33:52.176Z,9.95
2023-03-03T01:36:24.652Z,10.20
2023-03-03T01:38:51.431Z,9.65
2023-03-03T01:41:18.512Z,8.57
2023-03-03T01:43:49.241Z,9.48
2023-03-03T01:46:37.056Z,9.50
2023-03-03T01:49:12.774Z,9.02
2023-03-03T01:51:47.984Z,10.35
2023-03-03T01:54:21.805Z,10.20
2023-03-03T01:56:50.038Z,9.27
2023-03-03T01:59:23.658Z,8.50
2023-03-03T02:01:50.708Z,9.80
2023-03-03T02:04:17.991Z,9.45
2023-03-03T02:06:51.094Z,10.25
2023-03-03T02:09:37.088Z,10.48
2023-03-03T02:12:08.298Z,11.00
2023-03-03T02:14:35.417Z,10.57
2023-03-03T02:17:02.020Z,10.32
2023-03-03T02:19:52.669Z,9.20
2023-03-03T02:22:26.347Z,9.88
2023-03-03T02:25:02.080Z,9.88
2023-03-03T02:27:33.702Z,10.85
2023-03-03T02:30:13.897Z,9.73
2023-03-03T02:32:40.575Z,10.55
2023-03-03T02:35:29.941Z,10.07
2023-03-03T02:38:07.727Z,10.30
2023-03-03T02:40:38.458Z,11.13
2023-03-03T02:43:07.069Z,9.77
2023-03-03T02:45:33.758Z,10.05
2023-03-03T02:48:03.581Z,10.18
2023-03-03T02:50:30.294Z,10.57
2023-03-03T02:52:56.859Z,9.48
2023-03-03T02:55:23.454Z,10.07
2023-03-03T02:57:49.994Z,11.50
2023-03-03T03:00:16.755Z,11.27
2023-03-03T03:02:43.822Z,11.38
2023-03-03T03:05:10.425Z,12.55
2023-03-03T03:07:37.012Z,11.93
2023-03-03T03:10:04.345Z,11.75
2023-03-03T03:12:31.483Z,12.27
2023-03-03T03:14:58.131Z,12.85
2023-03-03T03:17:24.760Z,12.30
2023-03-03T03:19:51.413Z,11.65
2023-03-03T03:22:19.507Z,12.82
2023-03-03T03:24:46.091Z,11.50
2023-03-03T03:27:12.697Z,11.90
2023-03-03T03:29:39.274Z,12.18
2023-03-03T03:32:06.157Z,11.77
2023-03-03T03:34:32.757Z,12.77
2023-03-03T03:36:59.388Z,11.90
2023-03-03T03:39:25.960Z,12.30
2023-03-03T03:41:52.654Z,13.32
2023-03-03T03:44:19.278Z,12.57
2023-03-03T03:46:45.905Z,12.93
2023-03-03T03:49:12.619Z,13.70
2023-03-03T03:51:41.487Z,12.93
2023-03-03T03:54:08.372Z,13.27
2023-03-03T03:56:35.127Z,12.45
2023-03-03T03:59:01.820Z,12.90
2023-03-03T04:01:31.658Z,12.27
2023-03-03T04:03:58.245Z,11.50
2023-03-03T04:06:25.144Z,11.85
2023-03-03T04:08:51.773Z,12.48
2023-03-03T04:11:18.383Z,11.45
2023-03-03T04:13:45.083Z,12.85
2023-03-03T04:16:11.754Z,13.10
2023-03-03T04:18:38.574Z,13.05
2023-03-03T04:21:05.557Z,11.73
2023-03-03T04:23:32.143Z,12.25
2023-03-03T04:25:58.732Z,12.20
2023-03-03T04:28:26.438Z,12.23
2023-03-03T04:30:53.110Z,12.15
2023-03-03T04:33:19.757Z,12.52
2023-03-03T04:35:46.417Z,12.43
2023-03-03T04:38:13.206Z,12.25
2023-03-03T04:40:42.036Z,11.27
2023-03-03T04:43:09.873Z,11.85
2023-03-03T04:45:37.489Z,13.20
2023-03-03T04:48:04.351Z,12.02
2023-03-03T04:50:30.970Z,12.63
2023-03-03T04:52:57.753Z,13.65
2023-03-03T04:55:24.437Z,13.95
2023-03-03T04:57:51.268Z,12.98
2023-03-03T05:00:18.230Z,13.23
2023-03-03T05:02:45.052Z,13.07
2023-03-03T05:05:11.730Z,13.05
2023-03-03T05:07:38.329Z,13.68
2023-03-03T05:10:06.036Z,12.63
2023-03-03T05:12:32.691Z,11.50
2023-03-03T05:14:59.503Z,12.60
2023-03-03T05:17:26.123Z,12.90
2023-03-03T05:19:52.728Z,14.20
2023-03-03T05:22:19.351Z,13.75
2023-03-03T05:24:49.122Z,12.85
2023-03-03T05:27:16.900Z,12.77
2023-03-03T05:29:43.668Z,12.95
2023-03-03T05:32:10.328Z,13.10
2023-03-03T05:34:37.308Z,12.27
2023-03-03T05:37:06.653Z,12.27
2023-03-03T05:39:34.740Z,13.38
2023-03-03T05:42:01.731Z,13.85
2023-03-03T05:44:28.630Z,12.20
2023-03-03T05:46:57.702Z,11.43
2023-03-03T05:49:24.963Z,14.35
2023-03-03T05:51:51.635Z,14.23
2023-03-03T05:54:18.308Z,13.77
2023-03-03T05:56:45.030Z,12.25
2023-03-03T05:59:11.690Z,12.52
2023-03-03T06:01:38.644Z,13.35
2023-03-03T06:04:05.360Z,12.52
2023-03-03T06:06:32.134Z,13.50
2023-03-03T06:08:58.798Z,12.68
2023-03-03T06:11:25.385Z,12.45
2023-03-03T06:13:52.023Z,14.13
2023-03-03T06:16:19.144Z,13.63
2023-03-03T06:18:45.944Z,12.85
2023-03-03T06:21:12.629Z,13.27
2023-03-03T06:23:39.302Z,12.18
2023-03-03T06:26:05.909Z,12.88
2023-03-03T06:28:32.672Z,13.18
2023-03-03T06:30:59.458Z,13.27
2023-03-03T06:33:26.213Z,13.52
2023-03-03T06:35:54.299Z,16.42
2023-03-03T06:38:20.943Z,15.73
2023-03-03T06:40:47.790Z,14.95
2023-03-03T06:43:14.774Z,14.25
2023-03-03T06:45:41.512Z,14.38
2023-03-03T06:48:08.166Z,14.93
2023-03-03T06:50:35.077Z,13.23
2023-03-03T06:53:12.646Z,14.48
2023-03-03T06:55:39.772Z,14.02
2023-03-03T06:58:14.048Z,14.85
2023-03-03T07:00:44.255Z,14.35
2023-03-03T07:03:23.538Z,15.07
2023-03-03T07:05:51.507Z,14.00
2023-03-03T07:08:20.498Z,14.85
2023-03-03T07:10:48.423Z,15.10
2023-03-03T07:13:19.649Z,15.60
2023-03-03T07:15:48.233Z,16.10
2023-03-03T07:18:34.288Z,17.48
2023-03-03T07:21:14.864Z,15.87
2023-03-03T07:23:43.173Z,17.52
2023-03-03T07:26:14.619Z,18.35
2023-03-03T07:28:43.994Z,18.92
2023-03-03T07:31:31.393Z,20.08
2023-03-03T07:34:00.005Z,19.75
2023-03-03T07:36:31.054Z,18.40
2023-03-03T07:39:01.618Z,19.52
2023-03-03T07:41:30.894Z,19.73
2023-03-03T07:44:06.120Z,19.95
2023-03-03T07:46:49.272Z,20.77
2023-03-03T07:49:35.996Z,19.20
2023-03-03T07:52:18.235Z,21.70
2023-03-03T07:54:46.200Z,20.25
2023-03-03T07:57:28.140Z,20.67
2023-03-03T08:00:02.408Z,21.33
2023-03-03T08:02:40.154Z,21.40
2023-03-03T08:05:22.245Z,21.90
2023-03-03T08:07:50.861Z,22.40
2023-03-03T08:10:33.726Z,24.70
2023-03-03T08:13:09.039Z,23.23
2023-03-03T08:15:37.559Z,24.67
2023-03-03T08:18:19.841Z,24.67
2023-03-03T08:20:48.451Z,24.33
2023-03-03T08:23:17.003Z,25.38
2023-03-03T08:25:44.368Z,24.65
2023-03-03T08:28:12.575Z,23.77
2023-03-03T08:30:39.351Z,25.13
2023-03-03T08:33:06.072Z,25.23
2023-03-03T08:35:32.807Z,25.20
2023-03-03T08:37:59.506Z,23.13
2023-03-03T08:40:26.179Z,25.08
2023-03-03T08:42:54.411Z,25.55
2023-03-03T08:45:21.294Z,24.15
2023-03-03T08:47:47.933Z,24.08
2023-03-03T08:50:15.355Z,23.23
2023-03-03T08:52:42.154Z,23.50
2023-03-03T08:55:09.310Z,24.48
2023-03-03T08:57:36.125Z,24.65
2023-03-03T09:00:02.827Z,25.30
2023-03-03T09:02:29.474Z,25.05
2023-03-03T09:04:56.122Z,23.48
2023-03-03T09:07:22.889Z,24.10
2023-03-03T09:09:49.512Z,24.90
2023-03-03T09:12:19.592Z,23.90
2023-03-03T09:14:47.355Z,22.70
2023-03-03T09:17:32.110Z,23.05
2023-03-03T09:20:17.626Z,21.73
2023-03-03T09:22:45.026Z,21.55
2023-03-03T09:25:22.411Z,22.40
2023-03-03T09:27:49.122Z,21.48
2023-03-03T09:30:36.394Z,21.70
2023-03-03T09:33:21.656Z,22.05
2023-03-03T09:35:51.889Z,22.98
2023-03-03T09:38:30.890Z,22.65
2023-03-03T09:41:12.617Z,23.45
2023-03-03T09:44:12.264Z,23.60
2023-03-03T09:47:06.962Z,25.25
2023-03-03T09:49:42.799Z,25.15
2023-03-03T09:52:34.442Z,24.55
2023-03-03T09:55:09.596Z,25.77
2023-03-03T09:58:10.832Z,23.67
2023-03-03T10:00:47.301Z,24.17
2023-03-03T10:03:33.888Z,25.52
2023-03-03T10:06:16.802Z,25.38
2023-03-03T10:09:13.984Z,26.83
2023-03-03T10:12:08.254Z,25.83
2023-03-03T10:14:46.410Z,27.35
2023-03-03T10:17:28.408Z,26.23
2023-03-03T10:20:22.337Z,28.23
2023-03-03T10:22:55.939Z,26.48
2023-03-03T10:25:42.323Z,29.10
2023-03-03T10:28:32.994Z,25.63
2023-03-03T10:31:06.690Z,25.13
2023-03-03T10:33:57.813Z,24.33
2023-03-03T10:36:47.039Z,24.58
2023-03-03T10:39:20.727Z,27.08
2023-03-03T10:42:03.261Z,23.45
2023-03-03T10:44:58.895Z,23.92
2023-03-03T10:47:46.449Z,24.90
2023-03-03T10:50:21.545Z,25.23
2023-03-03T10:52:58.884Z,24.33
2023-03-03T10:55:26.625Z,24.70
2023-03-03T10:58:09.603Z,24.30
2023-03-03T11:00:59.599Z,23.35
2023-03-03T11:03:49.961Z,25.85
2023-03-03T11:06:35.071Z,25.83
2023-03-03T11:09:05.175Z,25.52
2023-03-03T11:11:37.859Z,26.17
2023-03-03T11:14:35.283Z,28.77
2023-03-03T11:19:59.781Z,28.23
2023-03-03T11:22:27.400Z,26.77
2023-03-03T11:25:15.855Z,28.73
2023-03-03T11:27:58.822Z,28.27
2023-03-03T11:30:40.784Z,29.13
2023-03-03T11:33:16.307Z,29.55
2023-03-03T11:36:09.151Z,28.60
2023-03-03T11:38:35.713Z,28.17
2023-03-03T11:41:11.772Z,27.88
2023-03-03T11:43:43.738Z,28.10
2023-03-03T11:46:17.056Z,27.73
2023-03-03T11:48:59.528Z,26.15
2023-03-03T11:51:50.665Z,25.98
2023-03-03T11:54:24.886Z,26.48
2023-03-03T11:56:57.346Z,26.15
2023-03-03T11:59:34.135Z,25.60
2023-03-03T12:02:30.417Z,26.95
2023-03-03T12:05:09.428Z,26.73
2023-03-03T12:08:04.084Z,25.65
2023-03-03T12:10:46.080Z,26.75
2023-03-03T12:13:25.306Z,24.90
2023-03-03T12:16:07.689Z,24.00
2023-03-03T12:18:35.299Z,25.35
2023-03-03T12:21:34.663Z,25.30
2023-03-03T12:24:27.817Z,24.35
2023-03-03T12:27:06.507Z,24.52
2023-03-03T12:29:46.821Z,25.88
2023-03-03T12:32:27.243Z,24.98
2023-03-03T12:35:10.362Z,23.55
2023-03-03T12:37:53.397Z,24.95
2023-03-03T12:40:27.252Z,24.60
2023-03-03T12:43:09.018Z,25.10
2023-03-03T12:45:55.287Z,24.65
2023-03-03T12:48:33.384Z,23.70
2023-03-03T12:51:06.821Z,21.73
2023-03-03T12:53:41.642Z,22.85
2023-03-03T12:56:11.939Z,23.27
2023-03-03T12:59:14.781Z,22.38
2023-03-03T13:01:49.146Z,21.80
2023-03-03T13:04:31.093Z,21.63
2023-03-03T13:07:08.618Z,22.73
2023-03-03T13:09:56.553Z,22.52
2023-03-03T13:12:45.716Z,20.90
2023-03-03T13:15:18.484Z,21.17
2023-03-03T13:18:13.231Z,20.00
2023-03-03T13:20:56.012Z,21.52
2023-03-03T13:23:41.908Z,22.70
2023-03-03T13:26:18.726Z,22.93
2023-03-03T13:29:19.725Z,21.17
2023-03-03T13:31:57.154Z,20.95
2023-03-03T13:34:32.966Z,21.23
2023-03-03T13:37:08.245Z,21.77
2023-03-03T13:39:57.681Z,21.50
2023-03-03T13:42:43.709Z,20.65
2023-03-03T13:45:35.736Z,20.00
2023-03-03T13:48:17.986Z,21.17
2023-03-03T13:50:44.573Z,19.48
2023-03-03T13:53:41.764Z,21.13
2023-03-03T13:56:33.246Z,20.33
2023-03-03T13:59:10.038Z,20.42
2023-03-03T14:02:04.884Z,21.48
2023-03-03T14:04:53.192Z,20.50
2023-03-03T14:07:35.974Z,20.73
2023-03-03T14:10:15.107Z,20.55
2023-03-03T14:12:51.708Z,19.45
2023-03-03T14:15:27.797Z,20.75
2023-03-03T14:18:18.698Z,20.13
2023-03-03T14:20:52.192Z,19.80
2023-03-03T14:23:40.535Z,19.85
2023-03-03T14:26:10.552Z,18.35
2023-03-03T14:28:48.338Z,19.00
2023-03-03T14:31:20.853Z,18.88
2023-03-03T14:34:14.368Z,18.23
2023-03-03T14:36:43.401Z,16.92
2023-03-03T14:39:34.081Z,16.15
2023-03-03T14:42:05.521Z,15.30
2023-03-03T14:44:54.916Z,15.05
2023-03-03T14:47:24.794Z,15.48
2023-03-03T14:49:51.875Z,17.05
2023-03-03T14:52:27.190Z,16.70
2023-03-03T14:55:00.426Z,15.73
2023-03-03T14:57:51.626Z,15.88
2023-03-03T15:00:19.177Z,15.90
2023-03-03T15:03:21.078Z,15.73
2023-03-03T15:05:51.226Z,15.02
2023-03-03T15:08:28.399Z,14.75
2023-03-03T15:10:55.080Z,14.18
2023-03-03T15:13:21.688Z,14.68
2023-03-03T15:15:53.619Z,15.57
2023-03-03T15:18:20.631Z,14.95
2023-03-03T15:20:56.089Z,15.02
2023-03-03T15:23:53.148Z,14.97
2023-03-03T15:26:29.974Z,16.00
2023-03-03T15:29:07.880Z,15.80
2023-03-03T15:32:01.080Z,16.25
2023-03-03T15:34:39.864Z,16.75
2023-03-03T15:37:21.836Z,18.08
2023-03-03T15:40:14.147Z,18.25
2023-03-03T15:42:52.807Z,19.13
2023-03-03T15:45:33.695Z,19.77
2023-03-03T15:48:20.205Z,20.45
2023-03-03T15:51:03.440Z,20.98
2023-03-03T15:53:46.487Z,21.35
2023-03-03T15:56:26.262Z,22.08
2023-03-03T15:58:53.851Z,21.55
2023-03-03T16:01:26.387Z,22.10
2023-03-03T16:04:13.436Z,22.95
2023-03-03T16:07:05.431Z,23.33
2023-03-03T16:09:52.228Z,21.75
2023-03-03T16:15:01.694Z,23.13
2023-03-03T16:17:44.400Z,22.55
2023-03-03T16:20:27.212Z,22.83
2023-03-03T16:23:23.066Z,23.92
2023-03-03T16:26:07.619Z,23.79
2023-03-03T16:28:34.247Z,23.60
2023-03-03T16:31:02.905Z,22.85
2023-03-03T16:33:31.506Z,23.08
2023-03-03T16:36:13.386Z,23.02
2023-03-03T16:38:44.047Z,24.05
2023-03-03T16:41:21.326Z,25.13
2023-03-03T16:44:15.821Z,24.90
2023-03-03T16:46:46.469Z,27.10
2023-03-03T16:49:37.816Z,26.77
2023-03-03T16:52:25.828Z,26.63
2023-03-03T16:54:59.457Z,26.20
2023-03-03T16:57:28.070Z,25.67
2023-03-03T17:00:19.106Z,26.75
2023-03-03T17:03:16.188Z,27.63
2023-03-03T17:05:52.108Z,28.95
2023-03-03T17:08:33.367Z,29.38
2023-03-03T17:11:24.911Z,28.63
2023-03-03T17:14:11.670Z,27.83
2023-03-03T17:16:58.320Z,28.73
2023-03-03T17:20:00.777Z,29.25
2023-03-03T17:22:50.955Z,29.05
2023-03-03T17:25:18.577Z,29.50
2023-03-03T17:28:00.369Z,31.77
2023-03-03T17:30:44.792Z,30.70
2023-03-03T17:33:26.784Z,30.67
2023-03-03T17:36:09.861Z,31.67
2023-03-03T17:39:07.099Z,30.77
2023-03-03T17:41:50.988Z,28.25
2023-03-03T17:44:30.430Z,29.95
2023-03-03T17:47:02.392Z,28.10
2023-03-03T17:49:59.701Z,29.05
2023-03-03T17:52:43.156Z,30.30
2023-03-03T17:55:26.188Z,28.42
2023-03-03T17:58:28.108Z,28.90
2023-03-03T18:01:14.620Z,31.83
2023-03-03T18:03:42.358Z,29.38
2023-03-03T18:06:16.372Z,30.75
2023-03-03T18:09:13.649Z,28.67
2023-03-03T18:11:58.190Z,28.85
2023-03-03T18:14:45.737Z,29.85
2023-03-03T18:17:35.470Z,29.77
2023-03-03T18:20:22.587Z,27.98
2023-03-03T18:22:51.501Z,27.73
2023-03-03T18:25:21.785Z,27.90
2023-03-03T18:28:08.312Z,27.20
2023-03-03T18:30:56.179Z,29.42
2023-03-03T18:33:43.834Z,28.35
2023-03-03T18:36:26.857Z,28.70
2023-03-03T18:38:56.700Z,28.33
2023-03-03T18:41:26.744Z,25.58
2023-03-03T18:43:54.961Z,26.75
2023-03-03T18:46:22.757Z,30.85
2023-03-03T18:48:53.220Z,31.90
2023-03-03T18:51:36.167Z,32.55
2023-03-03T18:54:30.892Z,30.40
2023-03-03T18:56:57.957Z,32.33
2023-03-03T18:59:48.530Z,29.70
2023-03-03T19:02:16.185Z,28.83
2023-03-03T19:04:48.575Z,27.42
2023-03-03T19:07:26.715Z,28.00
2023-03-03T19:09:58.058Z,29.33
2023-03-03T19:12:57.948Z,26.33
2023-03-03T19:15:46.918Z,24.92
2023-03-03T19:18:19.205Z,27.83
2023-03-03T19:20:52.248Z,31.83
2023-03-03T19:23:24.272Z,28.73
2023-03-03T19:26:21.448Z,30.08
2023-03-03T19:29:08.776Z,28.98
2023-03-03T19:31:47.668Z,26.25
2023-03-03T19:34:29.587Z,25.73
2023-03-03T19:37:26.786Z,28.73
2023-03-03T19:40:15.196Z,27.23
2023-03-03T19:42:49.036Z,27.48
2023-03-03T19:45:29.932Z,26.55
2023-03-03T19:48:09.077Z,25.83
2023-03-03T19:50:53.898Z,26.75
2023-03-03T19:53:27.770Z,26.02
2023-03-03T19:56:17.215Z,25.70
2023-03-03T19:59:05.802Z,27.27
2023-03-03T20:02:03.576Z,27.23
2023-03-03T20:05:02.850Z,28.50
2023-03-03T20:07:53.805Z,29.90
2023-03-03T20:10:38.724Z,29.88
2023-03-03T20:13:25.406Z,28.10
2023-03-03T20:16:27.788Z,29.92
2023-03-03T20:19:09.050Z,28.73
2023-03-03T20:22:02.903Z,29.60
2023-03-03T20:24:55.417Z,27.02
2023-03-03T20:27:29.309Z,31.42
2023-03-03T20:30:08.403Z,29.58
2023-03-03T20:32:40.447Z,29.40
2023-03-03T20:35:23.420Z,28.48
2023-03-03T20:38:06.885Z,28.23
2023-03-03T20:40:58.270Z,29.48
2023-03-03T20:43:50.442Z,29.25
2023-03-03T20:46:40.455Z,29.90
2023-03-03T20:49:17.881Z,28.83
2023-03-03T20:52:08.255Z,27.33
2023-03-03T20:54:49.186Z,27.95
2023-03-03T20:57:41.409Z,30.65
2023-03-03T21:00:14.857Z,31.60
2023-03-03T21:03:00.296Z,30.33
2023-03-03T21:05:27.103Z,33.85
2023-03-03T21:07:58.805Z,35.40
2023-03-03T21:10:28.484Z,32.88
2023-03-03T21:12:57.228Z,32.53
2023-03-03T21:15:26.852Z,33.72
2023-03-03T21:17:55.025Z,33.67
2023-03-03T21:20:31.856Z,34.83
2023-03-03T21:23:00.260Z,34.97
2023-03-03T21:25:44.857Z,34.75
2023-03-03T21:28:17.958Z,33.55
2023-03-03T21:31:01.288Z,36.75
2023-03-03T21:33:44.160Z,33.00
2023-03-03T21:36:13.802Z,33.83
2023-03-03T21:38:40.934Z,33.55
2023-03-03T21:41:09.269Z,34.45
2023-03-03T21:43:41.346Z,35.42
2023-03-03T21:46:08.376Z,39.85
2023-03-03T21:48:35.175Z,36.35
2023-03-03T21:51:02.157Z,32.30
2023-03-03T21:53:29.600Z,32.63
2023-03-03T21:55:56.440Z,33.35
2023-03-03T21:58:23.170Z,34.85
2023-03-03T22:00:49.805Z,35.10
2023-03-03T22:03:20.013Z,35.80
2023-03-03T22:05:49.111Z,34.70
2023-03-03T22:08:22.645Z,34.60
2023-03-03T22:10:56.073Z,33.10
2023-03-03T22:13:24.533Z,34.70
2023-03-03T22:15:52.189Z,35.40
2023-03-03T22:18:19.779Z,34.13
2023-03-03T22:20:47.523Z,33.08
2023-03-03T22:23:15.149Z,34.72
2023-03-03T22:25:42.306Z,33.83
2023-03-03T22:28:09.439Z,31.92
2023-03-03T22:30:37.227Z,31.55
2023-03-03T22:33:04.152Z,32.00
2023-03-03T22:35:31.177Z,31.35
2023-03-03T22:37:58.130Z,30.80
2023-03-03T22:40:24.985Z,31.58
2023-03-03T22:42:51.797Z,32.33
2023-03-03T22:45:18.464Z,32.20
2023-03-03T22:47:45.140Z,30.52
2023-03-03T22:50:12.518Z,31.20
2023-03-03T22:52:39.152Z,32.67
2023-03-03T22:55:09.667Z,32.08
2023-03-03T22:57:36.247Z,31.45
2023-03-03T23:00:03.448Z,31.05
2023-03-03T23:02:30.139Z,32.03
2023-03-03T23:05:01.107Z,30.52
2023-03-03T23:07:29.241Z,32.70
2023-03-03T23:09:56.173Z,31.15
2023-03-03T23:12:23.249Z,32.80
2023-03-03T23:14:49.856Z,30.48
2023-03-03T23:17:16.542Z,32.38
2023-03-03T23:19:46.169Z,31.83
2023-03-03T23:22:13.694Z,32.47
2023-03-03T23:24:41.090Z,31.85
2023-03-03T23:27:09.271Z,29.10
2023-03-03T23:29:36.317Z,31.67
2023-03-03T23:32:04.462Z,29.55
2023-03-03T23:34:32.297Z,30.42
2023-03-03T23:36:58.911Z,31.42
2023-03-03T23:39:25.553Z,31.75
2023-03-03T23:41:52.099Z,32.42
2023-03-03T23:44:18.805Z,33.47
2023-03-03T23:46:45.530Z,30.55
2023-03-03T23:49:12.201Z,29.85
2023-03-03T23:51:38.835Z,30.30
2023-03-03T23:54:05.565Z,30.67
2023-03-03T23:56:32.150Z,31.45
2023-03-03T23:58:58.770Z,30.33
